sensor_id;sensor_type;location;lat;lon;timestamp;temperature;humidity
19090;DHT22;9677;50.656;13.064;2023-04-29T00:01:20;13.60;53.00
19090;DHT22;9677;50.656;13.064;2023-04-29T00:03:48;13.60;53.00
19090;DHT22;9677;50.656;13.064;2023-04-29T00:06:18;13.60;53.10
19090;DHT22;9677;50.656;13.064;2023-04-29T00:08:47;13.60;53.20
19090;DHT22;9677;50.656;13.064;2023-04-29T00:11:15;13.60;53.20
19090;DHT22;9677;50.656;13.064;2023-04-29T00:13:44;13.60;53.20
19090;DHT22;9677;50.656;13.064;2023-04-29T00:16:12;13.60;53.30
19090;DHT22;9677;50.656;13.064;2023-04-29T00:18:40;13.60;53.30
19090;DHT22;9677;50.656;13.064;2023-04-29T00:21:09;13.60;53.40
19090;DHT22;9677;50.656;13.064;2023-04-29T00:23:39;13.60;53.40
19090;DHT22;9677;50.656;13.064;2023-04-29T00:26:07;13.60;53.60
19090;DHT22;9677;50.656;13.064;2023-04-29T00:28:36;13.60;53.50
19090;DHT22;9677;50.656;13.064;2023-04-29T00:31:05;13.60;53.60
19090;DHT22;9677;50.656;13.064;2023-04-29T00:33:33;13.60;53.60
19090;DHT22;9677;50.656;13.064;2023-04-29T00:36:02;13.60;53.60
19090;DHT22;9677;50.656;13.064;2023-04-29T00:38:30;13.60;53.70
19090;DHT22;9677;50.656;13.064;2023-04-29T00:41:02;13.60;53.70
19090;DHT22;9677;50.656;13.064;2023-04-29T00:43:30;13.60;53.80
19090;DHT22;9677;50.656;13.064;2023-04-29T00:45:59;13.60;53.80
19090;DHT22;9677;50.656;13.064;2023-04-29T00:48:27;13.60;53.80
19090;DHT22;9677;50.656;13.064;2023-04-29T00:50:56;13.60;53.80
19090;DHT22;9677;50.656;13.064;2023-04-29T00:53:24;13.60;53.80
19090;DHT22;9677;50.656;13.064;2023-04-29T00:55:53;13.60;53.90
19090;DHT22;9677;50.656;13.064;2023-04-29T00:58:24;13.60;54.00
19090;DHT22;9677;50.656;13.064;2023-04-29T01:00:59;13.70;54.00
19090;DHT22;9677;50.656;13.064;2023-04-29T01:03:28;13.70;54.00
19090;DHT22;9677;50.656;13.064;2023-04-29T01:06:06;13.60;54.00
19090;DHT22;9677;50.656;13.064;2023-04-29T01:08:45;13.70;54.20
19090;DHT22;9677;50.656;13.064;2023-04-29T01:11:22;13.70;54.10
19090;DHT22;9677;50.656;13.064;2023-04-29T01:13:58;13.70;54.20
19090;DHT22;9677;50.656;13.064;2023-04-29T01:16:36;13.70;54.30
19090;DHT22;9677;50.656;13.064;2023-04-29T01:19:15;13.60;55.00
19090;DHT22;9677;50.656;13.064;2023-04-29T01:21:48;13.60;54.60
19090;DHT22;9677;50.656;13.064;2023-04-29T01:24:18;13.60;54.30
19090;DHT22;9677;50.656;13.064;2023-04-29T01:26:53;13.60;54.50
19090;DHT22;9677;50.656;13.064;2023-04-29T01:29:50;13.60;54.60
19090;DHT22;9677;50.656;13.064;2023-04-29T01:32:42;13.60;54.90
19090;DHT22;9677;50.656;13.064;2023-04-29T01:35:24;13.60;55.30
19090;DHT22;9677;50.656;13.064;2023-04-29T01:38:08;13.60;55.00
19090;DHT22;9677;50.656;13.064;2023-04-29T01:40:51;13.60;55.10
19090;DHT22;9677;50.656;13.064;2023-04-29T01:43:29;13.60;55.00
19090;DHT22;9677;50.656;13.064;2023-04-29T01:46:09;13.60;55.30
19090;DHT22;9677;50.656;13.064;2023-04-29T01:48:38;13.60;55.20
19090;DHT22;9677;50.656;13.064;2023-04-29T01:51:07;13.60;55.30
19090;DHT22;9677;50.656;13.064;2023-04-29T01:53:35;13.60;55.30
19090;DHT22;9677;50.656;13.064;2023-04-29T01:56:07;13.70;55.40
19090;DHT22;9677;50.656;13.064;2023-04-29T01:59:05;13.60;55.40
19090;DHT22;9677;50.656;13.064;2023-04-29T02:01:37;13.60;55.30
19090;DHT22;9677;50.656;13.064;2023-04-29T02:04:06;13.70;55.20
19090;DHT22;9677;50.656;13.064;2023-04-29T02:06:35;13.70;55.20
19090;DHT22;9677;50.656;13.064;2023-04-29T02:09:04;13.70;55.20
19090;DHT22;9677;50.656;13.064;2023-04-29T02:11:35;13.70;55.20
19090;DHT22;9677;50.656;13.064;2023-04-29T02:14:03;13.70;55.30
19090;DHT22;9677;50.656;13.064;2023-04-29T02:16:32;13.70;55.20
19090;DHT22;9677;50.656;13.064;2023-04-29T02:19:03;13.70;55.20
19090;DHT22;9677;50.656;13.064;2023-04-29T02:21:32;13.70;55.20
19090;DHT22;9677;50.656;13.064;2023-04-29T02:24:01;13.80;55.20
19090;DHT22;9677;50.656;13.064;2023-04-29T02:26:29;14.00;55.20
19090;DHT22;9677;50.656;13.064;2023-04-29T02:29:00;13.80;55.10
19090;DHT22;9677;50.656;13.064;2023-04-29T02:31:29;13.80;55.10
19090;DHT22;9677;50.656;13.064;2023-04-29T02:33:58;13.80;55.10
19090;DHT22;9677;50.656;13.064;2023-04-29T02:36:27;13.80;55.10
19090;DHT22;9677;50.656;13.064;2023-04-29T02:38:55;13.80;55.10
19090;DHT22;9677;50.656;13.064;2023-04-29T02:41:23;13.80;55.00
19090;DHT22;9677;50.656;13.064;2023-04-29T02:43:52;13.80;54.90
19090;DHT22;9677;50.656;13.064;2023-04-29T02:46:22;13.80;54.90
19090;DHT22;9677;50.656;13.064;2023-04-29T02:48:51;13.80;54.90
19090;DHT22;9677;50.656;13.064;2023-04-29T02:51:20;13.80;54.90
19090;DHT22;9677;50.656;13.064;2023-04-29T02:53:48;13.90;54.90
19090;DHT22;9677;50.656;13.064;2023-04-29T02:56:17;13.80;54.90
19090;DHT22;9677;50.656;13.064;2023-04-29T02:58:45;13.80;54.90
19090;DHT22;9677;50.656;13.064;2023-04-29T03:01:14;13.80;54.90
19090;DHT22;9677;50.656;13.064;2023-04-29T03:03:44;13.80;54.90
19090;DHT22;9677;50.656;13.064;2023-04-29T03:06:12;13.80;55.00
19090;DHT22;9677;50.656;13.064;2023-04-29T03:08:41;13.80;54.90
19090;DHT22;9677;50.656;13.064;2023-04-29T03:11:10;13.80;54.90
19090;DHT22;9677;50.656;13.064;2023-04-29T03:13:39;13.80;54.90
19090;DHT22;9677;50.656;13.064;2023-04-29T03:16:07;13.70;54.90
19090;DHT22;9677;50.656;13.064;2023-04-29T03:18:36;13.70;54.80
19090;DHT22;9677;50.656;13.064;2023-04-29T03:21:06;13.70;54.90
19090;DHT22;9677;50.656;13.064;2023-04-29T03:23:34;13.70;54.90
19090;DHT22;9677;50.656;13.064;2023-04-29T03:26:07;13.70;54.90
19090;DHT22;9677;50.656;13.064;2023-04-29T03:28:36;13.70;54.90
19090;DHT22;9677;50.656;13.064;2023-04-29T03:31:04;13.70;54.90
19090;DHT22;9677;50.656;13.064;2023-04-29T03:33:33;13.70;54.90
19090;DHT22;9677;50.656;13.064;2023-04-29T03:36:02;13.70;55.00
19090;DHT22;9677;50.656;13.064;2023-04-29T03:38:37;13.60;54.90
19090;DHT22;9677;50.656;13.064;2023-04-29T03:41:07;13.60;55.00
19090;DHT22;9677;50.656;13.064;2023-04-29T03:43:36;13.60;55.00
19090;DHT22;9677;50.656;13.064;2023-04-29T03:46:04;13.60;55.00
19090;DHT22;9677;50.656;13.064;2023-04-29T03:48:33;13.60;55.00
19090;DHT22;9677;50.656;13.064;2023-04-29T03:51:03;13.50;55.00
19090;DHT22;9677;50.656;13.064;2023-04-29T03:53:32;13.50;55.60
19090;DHT22;9677;50.656;13.064;2023-04-29T03:56:04;13.50;55.10
19090;DHT22;9677;50.656;13.064;2023-04-29T03:58:32;13.50;55.20
19090;DHT22;9677;50.656;13.064;2023-04-29T04:01:01;13.50;55.20
19090;DHT22;9677;50.656;13.064;2023-04-29T04:03:37;13.50;55.20
19090;DHT22;9677;50.656;13.064;2023-04-29T04:06:05;13.60;55.30
19090;DHT22;9677;50.656;13.064;2023-04-29T04:08:34;13.50;55.30
19090;DHT22;9677;50.656;13.064;2023-04-29T04:11:27;13.50;55.30
19090;DHT22;9677;50.656;13.064;2023-04-29T04:13:58;13.50;55.30
19090;DHT22;9677;50.656;13.064;2023-04-29T04:16:27;13.50;55.30
19090;DHT22;9677;50.656;13.064;2023-04-29T04:18:55;13.50;55.40
19090;DHT22;9677;50.656;13.064;2023-04-29T04:21:24;13.50;55.40
19090;DHT22;9677;50.656;13.064;2023-04-29T04:23:59;13.40;55.40
19090;DHT22;9677;50.656;13.064;2023-04-29T04:26:30;13.50;55.40
19090;DHT22;9677;50.656;13.064;2023-04-29T04:29:05;13.60;55.50
19090;DHT22;9677;50.656;13.064;2023-04-29T04:31:54;13.50;55.50
19090;DHT22;9677;50.656;13.064;2023-04-29T04:34:23;13.50;55.90
19090;DHT22;9677;50.656;13.064;2023-04-29T04:36:54;13.50;56.30
19090;DHT22;9677;50.656;13.064;2023-04-29T04:39:22;13.50;56.50
19090;DHT22;9677;50.656;13.064;2023-04-29T04:41:54;13.50;56.60
19090;DHT22;9677;50.656;13.064;2023-04-29T04:44:24;13.60;57.30
19090;DHT22;9677;50.656;13.064;2023-04-29T04:46:59;13.60;56.60
19090;DHT22;9677;50.656;13.064;2023-04-29T04:49:46;13.70;57.00
19090;DHT22;9677;50.656;13.064;2023-04-29T04:52:18;13.70;57.00
19090;DHT22;9677;50.656;13.064;2023-04-29T04:54:54;13.80;57.10
19090;DHT22;9677;50.656;13.064;2023-04-29T04:57:27;13.80;57.00
19090;DHT22;9677;50.656;13.064;2023-04-29T04:59:59;13.90;57.10
19090;DHT22;9677;50.656;13.064;2023-04-29T05:02:29;13.90;57.20
19090;DHT22;9677;50.656;13.064;2023-04-29T05:04:58;14.00;57.40
19090;DHT22;9677;50.656;13.064;2023-04-29T05:07:30;14.10;57.60
19090;DHT22;9677;50.656;13.064;2023-04-29T05:10:03;14.10;57.70
19090;DHT22;9677;50.656;13.064;2023-04-29T05:12:39;14.20;57.90
19090;DHT22;9677;50.656;13.064;2023-04-29T05:15:08;14.30;57.80
19090;DHT22;9677;50.656;13.064;2023-04-29T05:17:36;14.40;57.80
19090;DHT22;9677;50.656;13.064;2023-04-29T05:20:06;14.40;57.50
19090;DHT22;9677;50.656;13.064;2023-04-29T05:22:35;14.40;57.60
19090;DHT22;9677;50.656;13.064;2023-04-29T05:25:06;14.50;57.60
19090;DHT22;9677;50.656;13.064;2023-04-29T05:27:35;14.50;57.40
19090;DHT22;9677;50.656;13.064;2023-04-29T05:30:08;14.60;57.40
19090;DHT22;9677;50.656;13.064;2023-04-29T05:32:37;14.60;57.50
19090;DHT22;9677;50.656;13.064;2023-04-29T05:35:09;14.80;57.50
19090;DHT22;9677;50.656;13.064;2023-04-29T05:37:37;14.70;57.30
19090;DHT22;9677;50.656;13.064;2023-04-29T05:40:38;14.80;57.30
19090;DHT22;9677;50.656;13.064;2023-04-29T05:43:27;14.90;57.30
19090;DHT22;9677;50.656;13.064;2023-04-29T05:45:57;14.90;57.20
19090;DHT22;9677;50.656;13.064;2023-04-29T05:48:26;15.00;57.40
19090;DHT22;9677;50.656;13.064;2023-04-29T05:50:55;15.00;57.40
19090;DHT22;9677;50.656;13.064;2023-04-29T05:53:24;15.00;57.30
19090;DHT22;9677;50.656;13.064;2023-04-29T05:55:52;15.10;57.40
19090;DHT22;9677;50.656;13.064;2023-04-29T05:58:21;15.10;57.40
19090;DHT22;9677;50.656;13.064;2023-04-29T06:00:49;15.20;57.30
19090;DHT22;9677;50.656;13.064;2023-04-29T06:03:23;15.20;57.20
19090;DHT22;9677;50.656;13.064;2023-04-29T06:06:02;15.30;57.20
19090;DHT22;9677;50.656;13.064;2023-04-29T06:08:38;15.30;57.10
19090;DHT22;9677;50.656;13.064;2023-04-29T06:11:14;15.30;57.10
19090;DHT22;9677;50.656;13.064;2023-04-29T06:13:43;15.40;57.10
19090;DHT22;9677;50.656;13.064;2023-04-29T06:16:11;15.40;57.10
19090;DHT22;9677;50.656;13.064;2023-04-29T06:18:41;15.40;57.00
19090;DHT22;9677;50.656;13.064;2023-04-29T06:21:10;15.60;57.20
19090;DHT22;9677;50.656;13.064;2023-04-29T06:23:38;15.50;57.20
19090;DHT22;9677;50.656;13.064;2023-04-29T06:26:14;15.50;57.10
19090;DHT22;9677;50.656;13.064;2023-04-29T06:28:43;15.50;57.10
19090;DHT22;9677;50.656;13.064;2023-04-29T06:31:11;15.60;57.10
19090;DHT22;9677;50.656;13.064;2023-04-29T06:33:42;15.60;57.20
19090;DHT22;9677;50.656;13.064;2023-04-29T06:36:11;15.60;57.30
19090;DHT22;9677;50.656;13.064;2023-04-29T06:38:56;15.80;57.30
19090;DHT22;9677;50.656;13.064;2023-04-29T06:41:45;15.70;57.30
19090;DHT22;9677;50.656;13.064;2023-04-29T06:44:43;15.70;57.20
19090;DHT22;9677;50.656;13.064;2023-04-29T06:47:35;15.70;57.30
19090;DHT22;9677;50.656;13.064;2023-04-29T06:50:13;15.80;57.30
19090;DHT22;9677;50.656;13.064;2023-04-29T06:52:43;15.70;57.30
19090;DHT22;9677;50.656;13.064;2023-04-29T06:55:11;15.80;57.30
19090;DHT22;9677;50.656;13.064;2023-04-29T06:57:41;15.80;57.50
19090;DHT22;9677;50.656;13.064;2023-04-29T07:00:13;15.80;57.80
19090;DHT22;9677;50.656;13.064;2023-04-29T07:02:42;15.80;57.20
19090;DHT22;9677;50.656;13.064;2023-04-29T07:05:10;15.80;57.50
19090;DHT22;9677;50.656;13.064;2023-04-29T07:07:42;15.80;57.50
19090;DHT22;9677;50.656;13.064;2023-04-29T07:10:10;15.80;57.50
19090;DHT22;9677;50.656;13.064;2023-04-29T07:12:39;15.80;57.40
19090;DHT22;9677;50.656;13.064;2023-04-29T07:15:08;15.80;57.40
19090;DHT22;9677;50.656;13.064;2023-04-29T07:17:36;15.80;57.60
19090;DHT22;9677;50.656;13.064;2023-04-29T07:20:06;15.80;57.50
19090;DHT22;9677;50.656;13.064;2023-04-29T07:22:36;15.80;57.50
19090;DHT22;9677;50.656;13.064;2023-04-29T07:25:05;15.80;57.50
19090;DHT22;9677;50.656;13.064;2023-04-29T07:27:34;15.80;57.50
19090;DHT22;9677;50.656;13.064;2023-04-29T07:30:03;16.00;57.60
19090;DHT22;9677;50.656;13.064;2023-04-29T07:32:32;15.80;57.50
19090;DHT22;9677;50.656;13.064;2023-04-29T07:35:03;16.00;57.70
19090;DHT22;9677;50.656;13.064;2023-04-29T07:37:32;15.80;57.60
19090;DHT22;9677;50.656;13.064;2023-04-29T07:40:03;15.90;57.60
19090;DHT22;9677;50.656;13.064;2023-04-29T07:42:32;15.90;57.70
19090;DHT22;9677;50.656;13.064;2023-04-29T07:45:00;15.90;57.80
19090;DHT22;9677;50.656;13.064;2023-04-29T07:47:29;16.00;57.60
19090;DHT22;9677;50.656;13.064;2023-04-29T07:49:57;15.90;57.60
19090;DHT22;9677;50.656;13.064;2023-04-29T07:52:26;15.90;57.40
19090;DHT22;9677;50.656;13.064;2023-04-29T07:54:54;15.90;57.40
19090;DHT22;9677;50.656;13.064;2023-04-29T07:57:24;16.20;57.90
19090;DHT22;9677;50.656;13.064;2023-04-29T07:59:53;16.00;57.70
19090;DHT22;9677;50.656;13.064;2023-04-29T08:02:22;16.00;57.70
19090;DHT22;9677;50.656;13.064;2023-04-29T08:04:50;16.00;57.70
19090;DHT22;9677;50.656;13.064;2023-04-29T08:07:22;16.10;57.80
19090;DHT22;9677;50.656;13.064;2023-04-29T08:09:50;16.10;57.70
19090;DHT22;9677;50.656;13.064;2023-04-29T08:12:19;16.40;57.70
19090;DHT22;9677;50.656;13.064;2023-04-29T08:14:49;16.10;57.60
19090;DHT22;9677;50.656;13.064;2023-04-29T08:17:18;16.20;57.50
19090;DHT22;9677;50.656;13.064;2023-04-29T08:19:46;16.20;57.40
19090;DHT22;9677;50.656;13.064;2023-04-29T08:22:14;16.20;57.40
19090;DHT22;9677;50.656;13.064;2023-04-29T08:24:43;16.20;57.40
19090;DHT22;9677;50.656;13.064;2023-04-29T08:27:11;16.30;57.40
19090;DHT22;9677;50.656;13.064;2023-04-29T08:29:40;16.30;57.50
19090;DHT22;9677;50.656;13.064;2023-04-29T08:32:10;16.30;57.40
19090;DHT22;9677;50.656;13.064;2023-04-29T08:34:39;16.40;57.40
19090;DHT22;9677;50.656;13.064;2023-04-29T08:37:07;16.40;57.30
19090;DHT22;9677;50.656;13.064;2023-04-29T08:39:36;16.40;57.20
19090;DHT22;9677;50.656;13.064;2023-04-29T08:42:07;16.40;57.10
19090;DHT22;9677;50.656;13.064;2023-04-29T08:44:36;16.40;57.10
19090;DHT22;9677;50.656;13.064;2023-04-29T08:47:05;16.40;57.00
19090;DHT22;9677;50.656;13.064;2023-04-29T08:49:36;16.40;57.00
19090;DHT22;9677;50.656;13.064;2023-04-29T08:52:05;16.40;56.90
19090;DHT22;9677;50.656;13.064;2023-04-29T08:54:33;16.40;56.80
19090;DHT22;9677;50.656;13.064;2023-04-29T08:57:02;16.30;57.10
19090;DHT22;9677;50.656;13.064;2023-04-29T08:59:32;16.30;56.80
19090;DHT22;9677;50.656;13.064;2023-04-29T09:02:01;16.40;56.90
19090;DHT22;9677;50.656;13.064;2023-04-29T09:04:40;16.20;56.90
19090;DHT22;9677;50.656;13.064;2023-04-29T09:07:11;16.20;57.70
19090;DHT22;9677;50.656;13.064;2023-04-29T09:09:40;16.20;56.90
19090;DHT22;9677;50.656;13.064;2023-04-29T09:12:09;16.30;57.00
19090;DHT22;9677;50.656;13.064;2023-04-29T09:14:37;16.10;57.00
19090;DHT22;9677;50.656;13.064;2023-04-29T09:17:05;16.20;57.00
19090;DHT22;9677;50.656;13.064;2023-04-29T09:19:35;16.10;56.90
19090;DHT22;9677;50.656;13.064;2023-04-29T09:22:05;16.10;57.00
19090;DHT22;9677;50.656;13.064;2023-04-29T09:24:34;16.00;57.00
19090;DHT22;9677;50.656;13.064;2023-04-29T09:27:03;16.10;57.00
19090;DHT22;9677;50.656;13.064;2023-04-29T09:29:32;16.10;57.10
19090;DHT22;9677;50.656;13.064;2023-04-29T09:32:17;16.00;57.00
19090;DHT22;9677;50.656;13.064;2023-04-29T09:34:47;16.00;57.50
19090;DHT22;9677;50.656;13.064;2023-04-29T09:37:24;16.00;57.10
19090;DHT22;9677;50.656;13.064;2023-04-29T09:39:54;16.00;57.50
19090;DHT22;9677;50.656;13.064;2023-04-29T09:42:22;16.00;57.30
19090;DHT22;9677;50.656;13.064;2023-04-29T09:44:50;16.00;57.40
19090;DHT22;9677;50.656;13.064;2023-04-29T09:47:28;16.00;57.50
19090;DHT22;9677;50.656;13.064;2023-04-29T09:50:10;16.00;57.70
19090;DHT22;9677;50.656;13.064;2023-04-29T09:52:42;16.00;57.90
19090;DHT22;9677;50.656;13.064;2023-04-29T09:55:10;16.00;57.50
19090;DHT22;9677;50.656;13.064;2023-04-29T09:57:41;16.00;57.50
19090;DHT22;9677;50.656;13.064;2023-04-29T10:00:12;16.00;57.60
19090;DHT22;9677;50.656;13.064;2023-04-29T10:02:41;16.10;57.80
19090;DHT22;9677;50.656;13.064;2023-04-29T10:05:14;16.10;57.80
19090;DHT22;9677;50.656;13.064;2023-04-29T10:07:45;16.10;57.80
19090;DHT22;9677;50.656;13.064;2023-04-29T10:10:15;16.20;57.90
19090;DHT22;9677;50.656;13.064;2023-04-29T10:12:44;16.30;57.80
19090;DHT22;9677;50.656;13.064;2023-04-29T10:15:19;16.20;57.90
19090;DHT22;9677;50.656;13.064;2023-04-29T10:17:57;16.30;58.00
19090;DHT22;9677;50.656;13.064;2023-04-29T10:20:27;16.30;57.90
19090;DHT22;9677;50.656;13.064;2023-04-29T10:22:58;16.40;57.90
19090;DHT22;9677;50.656;13.064;2023-04-29T10:25:28;16.40;57.90
19090;DHT22;9677;50.656;13.064;2023-04-29T10:27:57;16.60;57.90
19090;DHT22;9677;50.656;13.064;2023-04-29T10:30:26;16.70;58.00
19090;DHT22;9677;50.656;13.064;2023-04-29T10:32:55;16.60;57.90
19090;DHT22;9677;50.656;13.064;2023-04-29T10:35:27;16.70;57.90
19090;DHT22;9677;50.656;13.064;2023-04-29T10:37:59;16.70;57.90
19090;DHT22;9677;50.656;13.064;2023-04-29T10:40:35;16.80;58.10
19090;DHT22;9677;50.656;13.064;2023-04-29T10:43:07;16.80;57.90
19090;DHT22;9677;50.656;13.064;2023-04-29T10:45:36;16.90;57.70
19090;DHT22;9677;50.656;13.064;2023-04-29T10:48:12;17.00;57.50
19090;DHT22;9677;50.656;13.064;2023-04-29T10:51:00;17.00;57.40
19090;DHT22;9677;50.656;13.064;2023-04-29T10:53:33;17.10;57.40
19090;DHT22;9677;50.656;13.064;2023-04-29T10:56:08;17.20;57.20
19090;DHT22;9677;50.656;13.064;2023-04-29T10:58:44;17.10;57.10
19090;DHT22;9677;50.656;13.064;2023-04-29T11:01:14;17.20;57.10
19090;DHT22;9677;50.656;13.064;2023-04-29T11:03:52;17.20;57.00
19090;DHT22;9677;50.656;13.064;2023-04-29T11:06:36;17.30;57.10
19090;DHT22;9677;50.656;13.064;2023-04-29T11:09:10;17.30;56.90
19090;DHT22;9677;50.656;13.064;2023-04-29T11:11:42;17.30;56.70
19090;DHT22;9677;50.656;13.064;2023-04-29T11:14:12;17.30;56.50
19090;DHT22;9677;50.656;13.064;2023-04-29T11:16:50;17.30;56.30
19090;DHT22;9677;50.656;13.064;2023-04-29T11:19:19;17.40;56.20
19090;DHT22;9677;50.656;13.064;2023-04-29T11:21:47;17.30;55.90
19090;DHT22;9677;50.656;13.064;2023-04-29T11:24:33;17.20;55.90
19090;DHT22;9677;50.656;13.064;2023-04-29T11:27:02;17.20;55.70
19090;DHT22;9677;50.656;13.064;2023-04-29T11:29:32;17.10;55.60
19090;DHT22;9677;50.656;13.064;2023-04-29T11:32:01;17.00;55.70
19090;DHT22;9677;50.656;13.064;2023-04-29T11:34:29;17.00;55.70
19090;DHT22;9677;50.656;13.064;2023-04-29T11:36:58;16.90;55.70
19090;DHT22;9677;50.656;13.064;2023-04-29T11:39:26;16.80;55.90
19090;DHT22;9677;50.656;13.064;2023-04-29T11:42:03;16.70;55.90
19090;DHT22;9677;50.656;13.064;2023-04-29T11:44:33;16.70;56.10
19090;DHT22;9677;50.656;13.064;2023-04-29T11:49:31;16.60;56.00
19090;DHT22;9677;50.656;13.064;2023-04-29T11:52:00;16.60;56.10
19090;DHT22;9677;50.656;13.064;2023-04-29T11:54:29;16.50;56.20
19090;DHT22;9677;50.656;13.064;2023-04-29T11:56:57;16.50;56.30
19090;DHT22;9677;50.656;13.064;2023-04-29T11:59:30;16.50;56.40
19090;DHT22;9677;50.656;13.064;2023-04-29T12:01:59;16.50;56.50
19090;DHT22;9677;50.656;13.064;2023-04-29T12:04:27;16.50;56.50
19090;DHT22;9677;50.656;13.064;2023-04-29T12:06:56;16.50;56.60
19090;DHT22;9677;50.656;13.064;2023-04-29T12:09:25;16.50;56.50
19090;DHT22;9677;50.656;13.064;2023-04-29T12:11:54;16.50;56.50
19090;DHT22;9677;50.656;13.064;2023-04-29T12:14:22;16.50;56.40
19090;DHT22;9677;50.656;13.064;2023-04-29T12:16:52;16.40;56.30
19090;DHT22;9677;50.656;13.064;2023-04-29T12:19:21;16.40;56.40
19090;DHT22;9677;50.656;13.064;2023-04-29T12:21:49;16.60;56.30
19090;DHT22;9677;50.656;13.064;2023-04-29T12:24:19;16.40;56.20
19090;DHT22;9677;50.656;13.064;2023-04-29T12:26:48;16.30;56.30
19090;DHT22;9677;50.656;13.064;2023-04-29T12:29:20;16.30;56.40
19090;DHT22;9677;50.656;13.064;2023-04-29T12:31:49;16.30;56.50
19090;DHT22;9677;50.656;13.064;2023-04-29T12:34:25;16.30;56.50
19090;DHT22;9677;50.656;13.064;2023-04-29T12:36:55;16.30;56.80
19090;DHT22;9677;50.656;13.064;2023-04-29T12:39:24;16.30;56.70
19090;DHT22;9677;50.656;13.064;2023-04-29T12:41:56;16.30;56.60
19090;DHT22;9677;50.656;13.064;2023-04-29T12:44:25;16.30;56.60
19090;DHT22;9677;50.656;13.064;2023-04-29T12:46:54;16.40;56.70
19090;DHT22;9677;50.656;13.064;2023-04-29T12:49:27;16.60;56.70
19090;DHT22;9677;50.656;13.064;2023-04-29T12:51:56;16.40;56.70
19090;DHT22;9677;50.656;13.064;2023-04-29T12:54:24;16.60;57.20
19090;DHT22;9677;50.656;13.064;2023-04-29T12:56:52;16.40;56.50
19090;DHT22;9677;50.656;13.064;2023-04-29T12:59:21;16.40;56.40
19090;DHT22;9677;50.656;13.064;2023-04-29T13:01:50;16.40;56.30
19090;DHT22;9677;50.656;13.064;2023-04-29T13:04:18;16.40;56.20
19090;DHT22;9677;50.656;13.064;2023-04-29T13:06:48;16.40;56.20
19090;DHT22;9677;50.656;13.064;2023-04-29T13:09:20;16.40;56.20
19090;DHT22;9677;50.656;13.064;2023-04-29T13:11:48;16.40;56.20
19090;DHT22;9677;50.656;13.064;2023-04-29T13:14:17;16.50;56.20
19090;DHT22;9677;50.656;13.064;2023-04-29T13:16:46;16.30;56.00
19090;DHT22;9677;50.656;13.064;2023-04-29T13:19:14;16.40;56.10
19090;DHT22;9677;50.656;13.064;2023-04-29T13:22:01;16.50;56.20
19090;DHT22;9677;50.656;13.064;2023-04-29T13:24:30;16.30;56.20
19090;DHT22;9677;50.656;13.064;2023-04-29T13:26:59;16.30;56.30
19090;DHT22;9677;50.656;13.064;2023-04-29T13:29:29;16.40;56.30
19090;DHT22;9677;50.656;13.064;2023-04-29T13:31:57;16.40;56.30
19090;DHT22;9677;50.656;13.064;2023-04-29T13:34:25;16.40;56.20
19090;DHT22;9677;50.656;13.064;2023-04-29T13:36:54;16.40;56.00
19090;DHT22;9677;50.656;13.064;2023-04-29T13:39:24;16.40;56.00
19090;DHT22;9677;50.656;13.064;2023-04-29T13:41:53;16.40;56.00
19090;DHT22;9677;50.656;13.064;2023-04-29T13:44:25;16.50;56.00
19090;DHT22;9677;50.656;13.064;2023-04-29T13:47:12;16.40;55.90
19090;DHT22;9677;50.656;13.064;2023-04-29T13:49:42;16.40;55.90
19090;DHT22;9677;50.656;13.064;2023-04-29T13:52:31;16.30;55.70
19090;DHT22;9677;50.656;13.064;2023-04-29T13:55:04;16.30;55.90
19090;DHT22;9677;50.656;13.064;2023-04-29T13:57:36;16.30;56.20
19090;DHT22;9677;50.656;13.064;2023-04-29T14:00:25;16.90;56.50
19090;DHT22;9677;50.656;13.064;2023-04-29T14:02:56;16.40;56.20
19090;DHT22;9677;50.656;13.064;2023-04-29T14:05:25;16.40;56.20
19090;DHT22;9677;50.656;13.064;2023-04-29T14:07:53;16.40;56.10
19090;DHT22;9677;50.656;13.064;2023-04-29T14:10:23;16.60;55.90
19090;DHT22;9677;50.656;13.064;2023-04-29T14:12:51;16.40;55.60
19090;DHT22;9677;50.656;13.064;2023-04-29T14:15:20;16.40;55.50
19090;DHT22;9677;50.656;13.064;2023-04-29T14:17:48;16.40;55.50
19090;DHT22;9677;50.656;13.064;2023-04-29T14:20:17;16.40;55.40
19090;DHT22;9677;50.656;13.064;2023-04-29T14:22:45;16.30;55.30
19090;DHT22;9677;50.656;13.064;2023-04-29T14:25:14;16.30;55.40
19090;DHT22;9677;50.656;13.064;2023-04-29T14:27:44;16.20;55.50
19090;DHT22;9677;50.656;13.064;2023-04-29T14:30:14;16.30;55.70
19090;DHT22;9677;50.656;13.064;2023-04-29T14:32:43;16.20;55.70
19090;DHT22;9677;50.656;13.064;2023-04-29T14:35:12;16.20;55.70
19090;DHT22;9677;50.656;13.064;2023-04-29T14:37:40;16.20;55.70
19090;DHT22;9677;50.656;13.064;2023-04-29T14:40:09;16.20;55.70
19090;DHT22;9677;50.656;13.064;2023-04-29T14:42:38;16.20;55.70
19090;DHT22;9677;50.656;13.064;2023-04-29T14:45:08;16.10;55.50
19090;DHT22;9677;50.656;13.064;2023-04-29T14:47:38;16.10;55.50
19090;DHT22;9677;50.656;13.064;2023-04-29T14:50:07;16.00;55.40
19090;DHT22;9677;50.656;13.064;2023-04-29T14:52:37;16.00;55.50
19090;DHT22;9677;50.656;13.064;2023-04-29T14:55:05;16.00;55.40
19090;DHT22;9677;50.656;13.064;2023-04-29T14:57:34;15.90;55.40
19090;DHT22;9677;50.656;13.064;2023-04-29T15:00:03;15.90;55.50
19090;DHT22;9677;50.656;13.064;2023-04-29T15:02:35;15.80;55.50
19090;DHT22;9677;50.656;13.064;2023-04-29T15:05:04;15.80;55.40
19090;DHT22;9677;50.656;13.064;2023-04-29T15:07:32;15.80;55.50
19090;DHT22;9677;50.656;13.064;2023-04-29T15:10:02;15.80;55.60
19090;DHT22;9677;50.656;13.064;2023-04-29T15:12:32;15.80;55.60
19090;DHT22;9677;50.656;13.064;2023-04-29T15:15:01;15.80;55.60
19090;DHT22;9677;50.656;13.064;2023-04-29T15:17:29;15.70;55.60
19090;DHT22;9677;50.656;13.064;2023-04-29T15:19:59;15.70;55.70
19090;DHT22;9677;50.656;13.064;2023-04-29T15:22:27;15.80;55.80
19090;DHT22;9677;50.656;13.064;2023-04-29T15:24:56;15.70;55.80
19090;DHT22;9677;50.656;13.064;2023-04-29T15:27:25;15.70;55.90
19090;DHT22;9677;50.656;13.064;2023-04-29T15:29:53;15.70;55.90
19090;DHT22;9677;50.656;13.064;2023-04-29T15:32:23;15.70;55.90
19090;DHT22;9677;50.656;13.064;2023-04-29T15:34:58;15.80;55.90
19090;DHT22;9677;50.656;13.064;2023-04-29T15:37:27;15.80;55.90
19090;DHT22;9677;50.656;13.064;2023-04-29T15:39:57;15.80;55.90
19090;DHT22;9677;50.656;13.064;2023-04-29T15:42:27;15.80;55.90
19090;DHT22;9677;50.656;13.064;2023-04-29T15:44:55;15.80;55.90
19090;DHT22;9677;50.656;13.064;2023-04-29T15:47:23;15.90;55.90
19090;DHT22;9677;50.656;13.064;2023-04-29T15:49:52;15.90;55.90
19090;DHT22;9677;50.656;13.064;2023-04-29T15:52:23;15.90;55.80
19090;DHT22;9677;50.656;13.064;2023-04-29T15:54:52;15.90;55.70
19090;DHT22;9677;50.656;13.064;2023-04-29T15:57:20;15.90;55.70